createdAt,value
2023-03-06T00:01:54.776Z,6.02
2023-03-06T00:05:05.826Z,6.01
2023-03-06T00:08:17.137Z,6.01
2023-03-06T00:11:28.759Z,6.02
2023-03-06T00:14:40.473Z,6.02
2023-03-06T00:17:51.974Z,6.03
2023-03-06T00:21:03.073Z,6.03
2023-03-06T00:24:14.035Z,6.00
2023-03-06T00:27:26.475Z,5.98
2023-03-06T00:30:38.018Z,5.96
2023-03-06T00:33:49.821Z,5.94
2023-03-06T00:36:59.873Z,5.93
2023-03-06T00:40:03.864Z,5.93
2023-03-06T00:43:15.812Z,5.93
2023-03-06T00:46:20.377Z,5.94
2023-03-06T00:49:31.681Z,5.94
2023-03-06T00:52:42.758Z,5.94
2023-03-06T00:55:53.812Z,5.94
2023-03-06T00:59:04.692Z,5.93
2023-03-06T01:02:15.905Z,5.92
2023-03-06T01:05:19.451Z,5.90
2023-03-06T01:08:30.504Z,5.91
2023-03-06T01:11:41.636Z,5.94
2023-03-06T01:14:52.755Z,5.97
2023-03-06T01:18:03.841Z,5.98
2023-03-06T01:21:06.595Z,5.99
2023-03-06T01:24:10.759Z,5.98
2023-03-06T01:27:21.594Z,5.98
2023-03-06T01:30:32.536Z,5.97
2023-03-06T01:33:43.634Z,5.94
2023-03-06T01:36:54.569Z,5.93
2023-03-06T01:40:06.670Z,5.93
2023-03-06T01:43:27.771Z,5.94
2023-03-06T01:46:42.518Z,5.95
2023-03-06T01:50:04.032Z,5.98
2023-03-06T01:53:08.803Z,5.99
2023-03-06T01:56:19.701Z,5.97
2023-03-06T01:59:31.165Z,5.93
2023-03-06T02:02:43.867Z,5.91
2023-03-06T02:05:56.039Z,5.88
2023-03-06T02:09:08.659Z,5.85
2023-03-06T02:12:13.436Z,5.83
2023-03-06T02:15:25.946Z,5.81
2023-03-06T02:18:37.284Z,5.80
2023-03-06T02:21:49.125Z,5.83
2023-03-06T02:25:05.426Z,5.88
2023-03-06T02:28:18.071Z,5.90
2023-03-06T02:31:29.023Z,5.90
2023-03-06T02:34:58.577Z,5.89
2023-03-06T02:38:11.347Z,5.86
2023-03-06T02:41:22.230Z,5.83
2023-03-06T02:44:34.589Z,5.80
2023-03-06T02:47:45.586Z,5.80
2023-03-06T02:50:56.745Z,5.79
2023-03-06T02:54:08.138Z,5.81
2023-03-06T02:57:19.006Z,5.82
2023-03-06T03:00:30.547Z,5.84
2023-03-06T03:03:41.428Z,5.83
2023-03-06T03:06:52.336Z,5.83
2023-03-06T03:10:03.427Z,5.83
2023-03-06T03:13:14.246Z,5.82
2023-03-06T03:16:25.334Z,5.79
2023-03-06T03:19:36.337Z,5.78
2023-03-06T03:22:50.837Z,5.77
2023-03-06T03:26:08.944Z,5.76
2023-03-06T03:29:14.001Z,5.74
2023-03-06T03:32:24.848Z,5.73
2023-03-06T03:35:35.729Z,5.72
2023-03-06T03:38:46.785Z,5.70
2023-03-06T03:41:58.478Z,5.69
2023-03-06T03:45:10.727Z,5.67
2023-03-06T03:48:21.499Z,5.64
2023-03-06T03:51:33.041Z,5.63
2023-03-06T03:54:43.894Z,5.61
2023-03-06T03:57:55.151Z,5.62
2023-03-06T04:01:06.552Z,5.62
2023-03-06T04:04:17.569Z,5.64
2023-03-06T04:07:29.187Z,5.67
2023-03-06T04:10:40.739Z,5.71
2023-03-06T04:13:51.545Z,5.73
2023-03-06T04:17:02.601Z,5.74
2023-03-06T04:20:15.048Z,5.75
2023-03-06T04:23:27.998Z,5.72
2023-03-06T04:26:39.347Z,5.68
2023-03-06T04:29:51.546Z,5.65
2023-03-06T04:33:02.458Z,5.61
2023-03-06T04:36:19.355Z,5.58
2023-03-06T04:39:30.537Z,5.56
2023-03-06T04:42:41.315Z,5.55
2023-03-06T04:45:52.276Z,5.56
2023-03-06T04:49:51.098Z,5.58
2023-03-06T04:52:36.571Z,5.58
2023-03-06T04:55:47.371Z,5.58
2023-03-06T04:58:49.244Z,5.56
2023-03-06T05:02:00.049Z,5.54
2023-03-06T05:05:17.762Z,5.49
2023-03-06T05:08:16.054Z,5.44
2023-03-06T05:11:26.902Z,5.40
2023-03-06T05:14:37.729Z,5.38
2023-03-06T05:17:49.136Z,5.36
2023-03-06T05:20:53.330Z,5.37
2023-03-06T05:24:04.203Z,5.38
2023-03-06T05:27:20.976Z,5.38
2023-03-06T05:30:37.299Z,5.39
2023-03-06T05:33:48.642Z,5.40
2023-03-06T05:37:01.938Z,5.42
2023-03-06T05:40:14.484Z,5.43
2023-03-06T05:43:23.830Z,5.41
2023-03-06T05:46:17.511Z,5.39
2023-03-06T05:49:28.427Z,5.36
2023-03-06T05:52:40.272Z,5.34
2023-03-06T05:55:42.865Z,5.33
2023-03-06T05:58:53.992Z,5.33
2023-03-06T06:02:05.809Z,5.33
2023-03-06T06:05:17.192Z,5.33
2023-03-06T06:08:29.320Z,5.34
2023-03-06T06:11:40.494Z,5.35
2023-03-06T06:14:44.508Z,5.34
2023-03-06T06:17:55.876Z,5.31
2023-03-06T06:21:14.569Z,5.26
2023-03-06T06:24:26.073Z,5.19
2023-03-06T06:27:37.269Z,5.15
2023-03-06T06:31:00.982Z,5.13
2023-03-06T06:34:05.202Z,5.14
2023-03-06T06:37:16.598Z,5.15
2023-03-06T06:40:33.045Z,5.15
2023-03-06T06:43:44.422Z,5.16
2023-03-06T06:50:26.832Z,5.17
2023-03-06T06:53:37.713Z,5.18
2023-03-06T06:56:48.542Z,5.18
2023-03-06T07:00:05.565Z,5.18
2023-03-06T07:07:25.508Z,5.17
2023-03-06T07:10:29.982Z,5.17
2023-03-06T07:13:41.055Z,5.17
2023-03-06T07:16:51.982Z,5.16
2023-03-06T07:20:03.965Z,5.17
2023-03-06T07:23:14.791Z,5.20
2023-03-06T07:26:26.021Z,5.24
2023-03-06T07:29:42.640Z,5.28
2023-03-06T07:32:55.994Z,5.33
2023-03-06T07:36:12.173Z,5.37
2023-03-06T07:39:23.939Z,5.41
2023-03-06T07:42:34.846Z,5.43
2023-03-06T07:45:47.121Z,5.48
2023-03-06T07:48:58.394Z,5.67
2023-03-06T07:52:23.267Z,5.94
2023-03-06T07:55:34.257Z,6.04
2023-03-06T07:58:46.661Z,6.16
2023-03-06T08:01:57.895Z,6.28
2023-03-06T08:05:10.633Z,6.26
2023-03-06T08:08:04.446Z,6.19
2023-03-06T08:11:17.291Z,6.11
2023-03-06T08:14:28.274Z,6.04
2023-03-06T08:17:38.964Z,6.00
2023-03-06T08:20:43.283Z,5.99
2023-03-06T08:23:54.492Z,5.98
2023-03-06T08:27:05.611Z,5.99
2023-03-06T08:30:17.371Z,6.01
2023-03-06T08:33:28.403Z,6.08
2023-03-06T08:36:39.679Z,6.11
2023-03-06T08:39:50.639Z,6.13
2023-03-06T08:43:01.982Z,6.24
2023-03-06T08:46:13.324Z,6.41
2023-03-06T08:49:24.368Z,6.71
2023-03-06T08:52:35.466Z,6.95
2023-03-06T08:55:31.296Z,7.01
2023-03-06T08:58:21.855Z,7.04
2023-03-06T09:01:34.531Z,7.07
2023-03-06T09:04:34.184Z,7.13
2023-03-06T09:07:45.626Z,7.29
2023-03-06T09:10:56.727Z,7.46
2023-03-06T09:13:58.893Z,7.58
2023-03-06T09:17:09.656Z,7.65
2023-03-06T09:20:10.194Z,7.74
2023-03-06T09:23:06.233Z,7.82
2023-03-06T09:26:10.207Z,7.88
2023-03-06T09:29:21.434Z,7.82
2023-03-06T09:32:32.735Z,7.69
2023-03-06T09:35:47.962Z,7.60
2023-03-06T09:38:50.814Z,7.61
2023-03-06T09:42:03.510Z,7.66
2023-03-06T09:45:14.690Z,7.66
2023-03-06T09:48:13.525Z,7.65
2023-03-06T09:51:13.960Z,7.61
2023-03-06T09:54:13.551Z,7.58
2023-03-06T09:57:24.088Z,7.51
2023-03-06T10:00:32.379Z,7.48
2023-03-06T10:03:40.031Z,7.42
2023-03-06T10:06:52.101Z,7.35
2023-03-06T10:09:58.629Z,7.29
2023-03-06T10:13:05.172Z,7.25
2023-03-06T10:16:23.151Z,7.22
2023-03-06T10:19:35.219Z,7.24
2023-03-06T10:23:00.860Z,7.24
2023-03-06T10:26:30.503Z,7.20
2023-03-06T10:30:01.307Z,7.16
2023-03-06T10:33:23.364Z,7.14
2023-03-06T10:36:27.853Z,7.15
2023-03-06T10:39:37.522Z,7.21
2023-03-06T10:42:52.095Z,7.24
2023-03-06T10:45:55.827Z,7.27
2023-03-06T10:49:09.740Z,7.28
2023-03-06T10:52:24.921Z,7.29
2023-03-06T10:55:29.152Z,7.33
2023-03-06T10:58:32.014Z,7.41
2023-03-06T11:01:35.345Z,7.53
2023-03-06T11:04:50.427Z,7.60
2023-03-06T11:08:02.120Z,7.64
2023-03-06T11:11:05.384Z,7.66
2023-03-06T11:14:15.353Z,7.66
2023-03-06T11:17:27.890Z,7.64
2023-03-06T11:20:51.637Z,7.63
2023-03-06T11:23:45.635Z,7.72
2023-03-06T11:26:46.330Z,7.88
2023-03-06T11:29:50.886Z,8.07
2023-03-06T11:32:47.488Z,8.31
2023-03-06T11:35:47.896Z,8.54
2023-03-06T11:38:59.559Z,8.74
2023-03-06T11:42:16.248Z,8.95
2023-03-06T11:45:19.403Z,9.06
2023-03-06T11:48:26.165Z,9.10
2023-03-06T11:51:28.332Z,9.20
2023-03-06T11:54:30.653Z,9.33
2023-03-06T11:57:47.648Z,9.39
2023-03-06T12:01:01.801Z,9.50
2023-03-06T12:04:14.044Z,9.60
2023-03-06T12:07:22.557Z,9.73
2023-03-06T12:10:24.159Z,9.97
2023-03-06T12:13:35.907Z,10.29
2023-03-06T12:17:03.046Z,10.66
2023-03-06T12:20:01.265Z,10.90
2023-03-06T12:22:57.680Z,10.90
2023-03-06T12:26:14.649Z,10.74
2023-03-06T12:29:14.116Z,10.56
2023-03-06T12:32:14.256Z,10.45
2023-03-06T12:35:25.848Z,10.32
2023-03-06T12:38:38.760Z,10.07
2023-03-06T12:41:44.832Z,9.85
2023-03-06T12:44:53.618Z,9.67
2023-03-06T12:48:06.010Z,9.43
2023-03-06T12:51:18.624Z,9.18
2023-03-06T12:54:23.630Z,8.97
2023-03-06T12:57:26.767Z,8.82
2023-03-06T13:00:52.629Z,8.69
2023-03-06T13:04:18.011Z,8.57
2023-03-06T13:07:34.854Z,8.49
2023-03-06T13:10:48.475Z,8.38
2023-03-06T13:13:52.338Z,8.35
2023-03-06T13:17:16.727Z,8.31
2023-03-06T13:20:41.057Z,8.24
2023-03-06T13:24:04.905Z,8.14
2023-03-06T13:27:36.245Z,8.03
2023-03-06T13:30:47.289Z,7.97
2023-03-06T13:34:00.459Z,7.83
2023-03-06T13:37:14.310Z,7.58
2023-03-06T13:40:30.717Z,7.37
2023-03-06T13:43:43.475Z,7.19
2023-03-06T13:47:00.794Z,7.08
2023-03-06T13:50:20.706Z,7.04
2023-03-06T13:53:48.227Z,6.95
2023-03-06T13:56:53.233Z,6.89
2023-03-06T14:00:22.665Z,6.87
2023-03-06T14:03:45.824Z,6.87
2023-03-06T14:06:54.741Z,6.84
2023-03-06T14:10:09.927Z,6.80
2023-03-06T14:13:23.524Z,6.73
2023-03-06T14:20:15.310Z,6.63
2023-03-06T14:23:28.102Z,6.60
2023-03-06T14:26:44.200Z,6.59
2023-03-06T14:30:05.979Z,6.65
2023-03-06T14:37:25.960Z,6.74
2023-03-06T14:40:38.330Z,6.76
2023-03-06T14:43:49.247Z,6.76
2023-03-06T14:47:13.434Z,6.73
2023-03-06T14:50:25.830Z,6.71
2023-03-06T14:53:36.745Z,6.75
2023-03-06T14:56:48.939Z,6.79
2023-03-06T15:00:00.843Z,6.74
2023-03-06T15:03:45.669Z,6.67
2023-03-06T15:06:41.515Z,6.60
2023-03-06T15:09:46.127Z,6.56
2023-03-06T15:13:17.740Z,6.50
2023-03-06T15:16:37.080Z,6.45
2023-03-06T15:19:41.814Z,6.41
2023-03-06T15:22:38.219Z,6.42
2023-03-06T15:25:53.406Z,6.48
2023-03-06T15:29:14.256Z,6.54
2023-03-06T15:32:31.540Z,6.51
2023-03-06T15:36:21.594Z,6.48
2023-03-06T15:39:40.197Z,6.52
2023-03-06T15:42:44.521Z,6.60
2023-03-06T15:45:45.375Z,6.61
2023-03-06T15:49:00.285Z,6.63
2023-03-06T15:52:15.140Z,6.58
2023-03-06T15:55:18.555Z,6.44
2023-03-06T15:58:34.242Z,6.33
2023-03-06T16:01:46.598Z,6.31
2023-03-06T16:05:18.051Z,6.30
2023-03-06T16:12:23.979Z,6.27
2023-03-06T16:15:41.854Z,6.31
2023-03-06T16:18:52.791Z,6.34
2023-03-06T16:21:47.912Z,6.35
2023-03-06T16:24:38.719Z,6.31
2023-03-06T16:27:50.863Z,6.25
2023-03-06T16:30:56.343Z,6.22
2023-03-06T16:33:49.181Z,6.18
2023-03-06T16:37:15.247Z,6.15
2023-03-06T16:40:28.483Z,6.12
2023-03-06T16:43:18.786Z,6.11
2023-03-06T16:46:13.134Z,6.12
2023-03-06T16:49:03.513Z,6.12
2023-03-06T16:51:56.408Z,6.13
2023-03-06T16:54:47.360Z,6.19
2023-03-06T16:57:40.200Z,6.24
2023-03-06T17:00:33.424Z,6.28
2023-03-06T17:03:25.315Z,6.30
2023-03-06T17:06:16.537Z,6.34
2023-03-06T17:09:07.591Z,6.32
2023-03-06T17:11:57.890Z,6.27
2023-03-06T17:14:54.744Z,6.22
2023-03-06T17:17:58.000Z,6.18
2023-03-06T17:21:00.984Z,6.10
2023-03-06T17:23:51.791Z,6.01
2023-03-06T17:26:43.429Z,5.93
2023-03-06T17:29:33.631Z,5.85
2023-03-06T17:32:44.401Z,5.81
2023-03-06T17:35:37.479Z,5.73
2023-03-06T17:38:41.693Z,5.63
2023-03-06T17:41:33.054Z,5.53
2023-03-06T17:44:23.701Z,5.45
2023-03-06T17:47:34.301Z,5.42
2023-03-06T17:50:29.618Z,5.38
2023-03-06T17:53:30.001Z,5.36
2023-03-06T17:56:20.400Z,5.31
2023-03-06T17:59:31.804Z,5.29
2023-03-06T18:02:42.657Z,5.29
2023-03-06T18:05:32.916Z,5.30
2023-03-06T18:08:43.461Z,5.29
2023-03-06T18:11:37.392Z,5.27
2023-03-06T18:14:30.806Z,5.22
2023-03-06T18:17:36.214Z,5.18
2023-03-06T18:20:34.150Z,5.13
2023-03-06T18:23:29.535Z,5.03
2023-03-06T18:26:32.581Z,4.93
2023-03-06T18:29:25.957Z,4.84
2023-03-06T18:32:19.218Z,4.77
2023-03-06T18:35:12.587Z,4.73
2023-03-06T18:38:23.053Z,4.72
2023-03-06T18:41:18.670Z,4.70
2023-03-06T18:44:16.351Z,4.68
2023-03-06T18:47:06.922Z,4.63
2023-03-06T18:49:59.356Z,4.61
2023-03-06T18:52:49.710Z,4.60
2023-03-06T18:55:59.973Z,4.60
2023-03-06T18:59:03.719Z,4.60
2023-03-06T19:02:14.822Z,4.61
2023-03-06T19:05:10.909Z,4.61
2023-03-06T19:08:01.292Z,4.61
2023-03-06T19:10:51.960Z,4.61
2023-03-06T19:14:02.476Z,4.62
2023-03-06T19:17:13.120Z,4.61
2023-03-06T19:20:17.621Z,4.58
2023-03-06T19:23:07.914Z,4.56
2023-03-06T19:26:07.675Z,4.53
2023-03-06T19:29:05.404Z,4.49
2023-03-06T19:31:57.294Z,4.41
2023-03-06T19:34:56.572Z,4.34
2023-03-06T19:37:52.108Z,4.26
2023-03-06T19:40:54.141Z,4.16
2023-03-06T19:44:06.285Z,4.07
2023-03-06T19:47:16.781Z,3.99
2023-03-06T19:50:28.586Z,3.93
2023-03-06T19:53:18.999Z,3.89
2023-03-06T19:56:13.042Z,3.88
2023-03-06T19:59:03.542Z,3.88
2023-03-06T20:02:16.270Z,3.89
2023-03-06T20:05:12.736Z,3.87
2023-03-06T20:08:23.346Z,3.85
2023-03-06T20:11:23.951Z,3.86
2023-03-06T20:14:24.278Z,3.86
2023-03-06T20:17:23.700Z,3.85
2023-03-06T20:20:24.394Z,3.82
2023-03-06T20:23:16.637Z,3.78
2023-03-06T20:26:28.405Z,3.72
2023-03-06T20:29:44.681Z,3.67
2023-03-06T20:32:47.878Z,3.62
2023-03-06T20:36:01.218Z,3.60
2023-03-06T20:38:56.847Z,3.61
2023-03-06T20:41:59.480Z,3.63
2023-03-06T20:45:18.105Z,3.62
2023-03-06T20:48:30.763Z,3.63
2023-03-06T20:51:36.298Z,3.66
2023-03-06T20:54:38.688Z,3.67
2023-03-06T20:57:51.565Z,3.63
2023-03-06T21:01:02.551Z,3.61
2023-03-06T21:04:04.705Z,3.61
2023-03-06T21:07:16.434Z,3.62
2023-03-06T21:10:19.707Z,3.61
2023-03-06T21:13:15.469Z,3.60
2023-03-06T21:16:30.476Z,3.59
2023-03-06T21:19:23.842Z,3.59
2023-03-06T21:22:34.453Z,3.59
2023-03-06T21:25:51.825Z,3.56
2023-03-06T21:29:02.594Z,3.54
2023-03-06T21:32:13.152Z,3.55
2023-03-06T21:35:23.589Z,3.54
2023-03-06T21:38:33.919Z,3.51
2023-03-06T21:41:38.356Z,3.47
2023-03-06T21:44:31.790Z,3.45
2023-03-06T21:47:41.281Z,3.44
2023-03-06T21:50:52.100Z,3.43
2023-03-06T21:53:45.420Z,3.43
2023-03-06T21:56:52.152Z,3.44
2023-03-06T21:59:44.716Z,3.45
2023-03-06T22:02:52.838Z,3.46
2023-03-06T22:05:57.084Z,3.44
2023-03-06T22:09:07.883Z,3.39
2023-03-06T22:12:08.533Z,3.32
2023-03-06T22:15:04.424Z,3.24
2023-03-06T22:18:15.990Z,3.17
2023-03-06T22:21:19.451Z,3.11
2023-03-06T22:24:21.132Z,3.08
2023-03-06T22:27:25.744Z,3.08
2023-03-06T22:30:40.427Z,3.11
2023-03-06T22:33:42.090Z,3.10
2023-03-06T22:36:55.642Z,3.10
2023-03-06T22:39:46.160Z,3.10
2023-03-06T22:42:49.316Z,3.09
2023-03-06T22:46:01.602Z,3.09
2023-03-06T22:49:03.452Z,3.06
2023-03-06T22:52:06.591Z,3.03
2023-03-06T22:54:59.863Z,3.00
2023-03-06T22:58:10.556Z,2.95
2023-03-06T23:01:22.801Z,2.91
2023-03-06T23:04:23.953Z,2.88
2023-03-06T23:07:23.248Z,2.85
2023-03-06T23:10:23.951Z,2.86
2023-03-06T23:13:32.916Z,2.85
2023-03-06T23:16:41.616Z,2.86
2023-03-06T23:19:51.647Z,2.87
2023-03-06T23:23:01.011Z,2.87
2023-03-06T23:26:07.047Z,2.87
2023-03-06T23:29:07.423Z,2.88
2023-03-06T23:32:08.867Z,2.90
2023-03-06T23:35:02.203Z,2.91
2023-03-06T23:38:07.395Z,2.89
2023-03-06T23:41:10.947Z,2.88
2023-03-06T23:44:05.087Z,2.88
2023-03-06T23:47:17.320Z,2.88
2023-03-06T23:50:28.088Z,2.87
2023-03-06T23:53:38.886Z,2.85
2023-03-06T23:56:39.036Z,2.82
2023-03-06T23:59:49.642Z,2.81
